sensor_id;sensor_type;location;lat;lon;timestamp;P1;durP1;ratioP1;P2;durP2;ratioP2
14754;SDS011;7469;50.906;6.952;2022-11-21T00:01:13;11.90;;;3.47;;
14754;SDS011;7469;50.906;6.952;2022-11-21T00:03:45;11.30;;;3.10;;
14754;SDS011;7469;50.906;6.952;2022-11-21T00:06:13;12.43;;;2.63;;
14754;SDS011;7469;50.906;6.952;2022-11-21T00:08:42;18.13;;;3.40;;
14754;SDS011;7469;50.906;6.952;2022-11-21T00:11:10;15.27;;;3.63;;
14754;SDS011;7469;50.906;6.952;2022-11-21T00:13:39;11.57;;;3.50;;
14754;SDS011;7469;50.906;6.952;2022-11-21T00:16:07;16.47;;;3.30;;
14754;SDS011;7469;50.906;6.952;2022-11-21T00:18:37;15.30;;;3.50;;
14754;SDS011;7469;50.906;6.952;2022-11-21T00:21:07;18.43;;;3.23;;
14754;SDS011;7469;50.906;6.952;2022-11-21T00:23:37;11.30;;;3.13;;
14754;SDS011;7469;50.906;6.952;2022-11-21T00:26:06;13.37;;;3.20;;
14754;SDS011;7469;50.906;6.952;2022-11-21T00:28:34;12.07;;;2.50;;
14754;SDS011;7469;50.906;6.952;2022-11-21T00:31:03;13.70;;;3.00;;
14754;SDS011;7469;50.906;6.952;2022-11-21T00:33:33;11.17;;;2.43;;
14754;SDS011;7469;50.906;6.952;2022-11-21T00:36:04;12.80;;;2.90;;
14754;SDS011;7469;50.906;6.952;2022-11-21T00:38:34;13.17;;;3.37;;
14754;SDS011;7469;50.906;6.952;2022-11-21T00:41:03;14.87;;;3.00;;
14754;SDS011;7469;50.906;6.952;2022-11-21T00:43:31;13.47;;;2.80;;
14754;SDS011;7469;50.906;6.952;2022-11-21T00:46:00;14.43;;;3.57;;
14754;SDS011;7469;50.906;6.952;2022-11-21T00:48:29;14.83;;;3.70;;
14754;SDS011;7469;50.906;6.952;2022-11-21T00:50:58;17.00;;;3.30;;
14754;SDS011;7469;50.906;6.952;2022-11-21T00:53:28;9.77;;;2.70;;
14754;SDS011;7469;50.906;6.952;2022-11-21T00:55:56;15.23;;;3.43;;
14754;SDS011;7469;50.906;6.952;2022-11-21T00:58:24;10.20;;;3.00;;
14754;SDS011;7469;50.906;6.952;2022-11-21T01:00:52;18.87;;;2.90;;
14754;SDS011;7469;50.906;6.952;2022-11-21T01:03:28;10.70;;;3.10;;
14754;SDS011;7469;50.906;6.952;2022-11-21T01:05:59;16.17;;;2.97;;
14754;SDS011;7469;50.906;6.952;2022-11-21T01:08:29;11.73;;;2.90;;
14754;SDS011;7469;50.906;6.952;2022-11-21T01:11:00;9.03;;;2.63;;
14754;SDS011;7469;50.906;6.952;2022-11-21T01:13:29;12.90;;;2.90;;
14754;SDS011;7469;50.906;6.952;2022-11-21T01:16:01;15.47;;;3.47;;
14754;SDS011;7469;50.906;6.952;2022-11-21T01:18:29;13.53;;;3.17;;
14754;SDS011;7469;50.906;6.952;2022-11-21T01:20:58;10.83;;;2.70;;
14754;SDS011;7469;50.906;6.952;2022-11-21T01:23:26;12.43;;;3.37;;
14754;SDS011;7469;50.906;6.952;2022-11-21T01:25:59;13.50;;;3.33;;
14754;SDS011;7469;50.906;6.952;2022-11-21T01:28:27;7.10;;;2.60;;
14754;SDS011;7469;50.906;6.952;2022-11-21T01:31:01;12.33;;;2.70;;
14754;SDS011;7469;50.906;6.952;2022-11-21T01:33:29;12.83;;;2.97;;
14754;SDS011;7469;50.906;6.952;2022-11-21T01:36:04;8.13;;;2.77;;
14754;SDS011;7469;50.906;6.952;2022-11-21T01:38:33;9.17;;;2.27;;
14754;SDS011;7469;50.906;6.952;2022-11-21T01:41:02;15.97;;;2.63;;
14754;SDS011;7469;50.906;6.952;2022-11-21T01:43:30;13.27;;;2.63;;
14754;SDS011;7469;50.906;6.952;2022-11-21T01:45:59;10.53;;;3.03;;
14754;SDS011;7469;50.906;6.952;2022-11-21T01:48:31;10.97;;;3.20;;
14754;SDS011;7469;50.906;6.952;2022-11-21T01:51:04;10.20;;;2.93;;
14754;SDS011;7469;50.906;6.952;2022-11-21T01:53:36;11.40;;;2.90;;
14754;SDS011;7469;50.906;6.952;2022-11-21T01:56:07;10.23;;;2.90;;
14754;SDS011;7469;50.906;6.952;2022-11-21T01:58:36;8.13;;;2.93;;
14754;SDS011;7469;50.906;6.952;2022-11-21T02:01:06;17.00;;;3.27;;
14754;SDS011;7469;50.906;6.952;2022-11-21T02:03:35;10.57;;;2.50;;
14754;SDS011;7469;50.906;6.952;2022-11-21T02:06:05;9.07;;;2.47;;
14754;SDS011;7469;50.906;6.952;2022-11-21T02:08:35;12.47;;;3.10;;
14754;SDS011;7469;50.906;6.952;2022-11-21T02:11:05;7.67;;;2.73;;
14754;SDS011;7469;50.906;6.952;2022-11-21T02:13:40;9.87;;;2.70;;
14754;SDS011;7469;50.906;6.952;2022-11-21T02:16:08;10.80;;;2.70;;
14754;SDS011;7469;50.906;6.952;2022-11-21T02:18:38;7.73;;;2.33;;
14754;SDS011;7469;50.906;6.952;2022-11-21T02:21:08;13.07;;;3.13;;
14754;SDS011;7469;50.906;6.952;2022-11-21T02:23:44;8.30;;;2.40;;
14754;SDS011;7469;50.906;6.952;2022-11-21T02:26:20;9.70;;;2.63;;
14754;SDS011;7469;50.906;6.952;2022-11-21T02:28:48;8.40;;;2.70;;
14754;SDS011;7469;50.906;6.952;2022-11-21T02:31:16;9.73;;;2.63;;
14754;SDS011;7469;50.906;6.952;2022-11-21T02:33:44;7.67;;;2.20;;
14754;SDS011;7469;50.906;6.952;2022-11-21T02:36:34;11.37;;;2.93;;
14754;SDS011;7469;50.906;6.952;2022-11-21T02:39:09;7.80;;;2.20;;
14754;SDS011;7469;50.906;6.952;2022-11-21T02:41:45;8.67;;;2.70;;
14754;SDS011;7469;50.906;6.952;2022-11-21T02:44:21;9.80;;;2.50;;
14754;SDS011;7469;50.906;6.952;2022-11-21T02:46:52;7.13;;;2.47;;
14754;SDS011;7469;50.906;6.952;2022-11-21T02:49:22;10.27;;;2.70;;
14754;SDS011;7469;50.906;6.952;2022-11-21T02:51:56;7.63;;;2.13;;
14754;SDS011;7469;50.906;6.952;2022-11-21T02:54:24;11.07;;;2.87;;
14754;SDS011;7469;50.906;6.952;2022-11-21T02:56:54;8.17;;;2.07;;
14754;SDS011;7469;50.906;6.952;2022-11-21T02:59:22;8.17;;;2.77;;
14754;SDS011;7469;50.906;6.952;2022-11-21T03:01:50;11.67;;;2.83;;
14754;SDS011;7469;50.906;6.952;2022-11-21T03:04:18;8.20;;;2.60;;
14754;SDS011;7469;50.906;6.952;2022-11-21T03:06:46;5.13;;;2.07;;
14754;SDS011;7469;50.906;6.952;2022-11-21T03:09:14;7.63;;;1.90;;
14754;SDS011;7469;50.906;6.952;2022-11-21T03:11:42;6.47;;;1.67;;
14754;SDS011;7469;50.906;6.952;2022-11-21T03:14:11;7.57;;;1.90;;
14754;SDS011;7469;50.906;6.952;2022-11-21T03:16:39;7.57;;;2.13;;
14754;SDS011;7469;50.906;6.952;2022-11-21T03:19:07;8.40;;;2.13;;
14754;SDS011;7469;50.906;6.952;2022-11-21T03:21:35;11.67;;;2.77;;
14754;SDS011;7469;50.906;6.952;2022-11-21T03:24:03;8.33;;;2.23;;
14754;SDS011;7469;50.906;6.952;2022-11-21T03:26:32;11.87;;;2.43;;
14754;SDS011;7469;50.906;6.952;2022-11-21T03:28:59;6.60;;;2.20;;
14754;SDS011;7469;50.906;6.952;2022-11-21T03:31:29;6.90;;;2.23;;
14754;SDS011;7469;50.906;6.952;2022-11-21T03:33:57;8.97;;;2.53;;
14754;SDS011;7469;50.906;6.952;2022-11-21T03:36:25;7.60;;;2.60;;
14754;SDS011;7469;50.906;6.952;2022-11-21T03:38:53;9.27;;;2.40;;
14754;SDS011;7469;50.906;6.952;2022-11-21T03:41:22;5.43;;;2.40;;
14754;SDS011;7469;50.906;6.952;2022-11-21T03:43:56;8.43;;;2.57;;
14754;SDS011;7469;50.906;6.952;2022-11-21T03:46:24;7.87;;;2.50;;
14754;SDS011;7469;50.906;6.952;2022-11-21T03:48:53;7.23;;;2.50;;
14754;SDS011;7469;50.906;6.952;2022-11-21T03:51:21;8.30;;;2.87;;
14754;SDS011;7469;50.906;6.952;2022-11-21T03:53:50;6.43;;;3.10;;
14754;SDS011;7469;50.906;6.952;2022-11-21T03:56:18;8.70;;;2.33;;
14754;SDS011;7469;50.906;6.952;2022-11-21T03:58:46;8.87;;;2.73;;
14754;SDS011;7469;50.906;6.952;2022-11-21T04:01:14;8.63;;;2.70;;
14754;SDS011;7469;50.906;6.952;2022-11-21T04:03:43;6.63;;;2.23;;
14754;SDS011;7469;50.906;6.952;2022-11-21T04:06:13;6.73;;;2.67;;
14754;SDS011;7469;50.906;6.952;2022-11-21T04:08:42;9.20;;;2.90;;
14754;SDS011;7469;50.906;6.952;2022-11-21T04:11:10;5.07;;;2.77;;
14754;SDS011;7469;50.906;6.952;2022-11-21T04:13:38;8.30;;;3.03;;
14754;SDS011;7469;50.906;6.952;2022-11-21T04:16:06;5.53;;;2.70;;
14754;SDS011;7469;50.906;6.952;2022-11-21T04:18:34;8.80;;;2.93;;
14754;SDS011;7469;50.906;6.952;2022-11-21T04:21:04;8.40;;;2.63;;
14754;SDS011;7469;50.906;6.952;2022-11-21T04:23:34;8.93;;;2.60;;
14754;SDS011;7469;50.906;6.952;2022-11-21T04:26:02;5.20;;;2.60;;
14754;SDS011;7469;50.906;6.952;2022-11-21T04:28:30;5.67;;;2.70;;
14754;SDS011;7469;50.906;6.952;2022-11-21T04:31:00;7.87;;;3.00;;
14754;SDS011;7469;50.906;6.952;2022-11-21T04:33:36;8.63;;;2.80;;
14754;SDS011;7469;50.906;6.952;2022-11-21T04:36:04;8.57;;;2.90;;
14754;SDS011;7469;50.906;6.952;2022-11-21T04:38:34;6.50;;;2.97;;
14754;SDS011;7469;50.906;6.952;2022-11-21T04:41:02;10.73;;;3.50;;
14754;SDS011;7469;50.906;6.952;2022-11-21T04:43:31;8.43;;;2.80;;
14754;SDS011;7469;50.906;6.952;2022-11-21T04:45:59;6.77;;;3.20;;
14754;SDS011;7469;50.906;6.952;2022-11-21T04:48:26;5.17;;;2.80;;
14754;SDS011;7469;50.906;6.952;2022-11-21T04:50:54;9.57;;;2.83;;
14754;SDS011;7469;50.906;6.952;2022-11-21T04:53:22;6.97;;;3.40;;
14754;SDS011;7469;50.906;6.952;2022-11-21T04:55:52;6.33;;;3.17;;
14754;SDS011;7469;50.906;6.952;2022-11-21T04:58:20;9.07;;;2.93;;
14754;SDS011;7469;50.906;6.952;2022-11-21T05:00:48;6.90;;;3.07;;
14754;SDS011;7469;50.906;6.952;2022-11-21T05:03:17;9.63;;;2.87;;
14754;SDS011;7469;50.906;6.952;2022-11-21T05:05:45;10.10;;;3.20;;
14754;SDS011;7469;50.906;6.952;2022-11-21T05:08:13;15.07;;;3.80;;
14754;SDS011;7469;50.906;6.952;2022-11-21T05:10:41;4.77;;;3.30;;
14754;SDS011;7469;50.906;6.952;2022-11-21T05:13:28;6.67;;;3.10;;
14754;SDS011;7469;50.906;6.952;2022-11-21T05:15:56;10.07;;;3.67;;
14754;SDS011;7469;50.906;6.952;2022-11-21T05:18:24;9.00;;;3.20;;
14754;SDS011;7469;50.906;6.952;2022-11-21T05:20:52;11.77;;;3.07;;
14754;SDS011;7469;50.906;6.952;2022-11-21T05:23:20;9.63;;;3.23;;
14754;SDS011;7469;50.906;6.952;2022-11-21T05:25:49;8.03;;;3.23;;
14754;SDS011;7469;50.906;6.952;2022-11-21T05:28:16;9.03;;;3.43;;
14754;SDS011;7469;50.906;6.952;2022-11-21T05:30:46;10.67;;;3.10;;
14754;SDS011;7469;50.906;6.952;2022-11-21T05:33:14;11.17;;;3.23;;
14754;SDS011;7469;50.906;6.952;2022-11-21T05:35:42;7.93;;;3.30;;
14754;SDS011;7469;50.906;6.952;2022-11-21T05:38:10;7.70;;;3.20;;
14754;SDS011;7469;50.906;6.952;2022-11-21T05:40:38;10.73;;;3.93;;
14754;SDS011;7469;50.906;6.952;2022-11-21T05:43:06;8.80;;;3.40;;
14754;SDS011;7469;50.906;6.952;2022-11-21T05:45:54;8.70;;;3.43;;
14754;SDS011;7469;50.906;6.952;2022-11-21T05:48:22;7.63;;;3.27;;
14754;SDS011;7469;50.906;6.952;2022-11-21T05:50:50;8.63;;;3.67;;
14754;SDS011;7469;50.906;6.952;2022-11-21T05:53:18;9.40;;;3.70;;
14754;SDS011;7469;50.906;6.952;2022-11-21T05:55:46;11.20;;;4.03;;
14754;SDS011;7469;50.906;6.952;2022-11-21T05:58:14;11.40;;;4.40;;
14754;SDS011;7469;50.906;6.952;2022-11-21T06:00:42;7.97;;;3.90;;
14754;SDS011;7469;50.906;6.952;2022-11-21T06:03:12;9.60;;;3.43;;
14754;SDS011;7469;50.906;6.952;2022-11-21T06:05:59;7.73;;;3.50;;
14754;SDS011;7469;50.906;6.952;2022-11-21T06:08:30;6.60;;;3.67;;
14754;SDS011;7469;50.906;6.952;2022-11-21T06:10:59;11.90;;;4.00;;
14754;SDS011;7469;50.906;6.952;2022-11-21T06:13:27;9.17;;;3.70;;
14754;SDS011;7469;50.906;6.952;2022-11-21T06:15:57;10.13;;;4.20;;
14754;SDS011;7469;50.906;6.952;2022-11-21T06:18:29;7.83;;;3.63;;
14754;SDS011;7469;50.906;6.952;2022-11-21T06:21:02;7.10;;;3.43;;
14754;SDS011;7469;50.906;6.952;2022-11-21T06:23:31;10.63;;;4.00;;
14754;SDS011;7469;50.906;6.952;2022-11-21T06:25:59;9.20;;;3.70;;
14754;SDS011;7469;50.906;6.952;2022-11-21T06:28:29;5.80;;;3.60;;
14754;SDS011;7469;50.906;6.952;2022-11-21T06:31:01;11.37;;;4.20;;
14754;SDS011;7469;50.906;6.952;2022-11-21T06:33:31;9.57;;;3.50;;
14754;SDS011;7469;50.906;6.952;2022-11-21T06:36:00;10.33;;;3.53;;
14754;SDS011;7469;50.906;6.952;2022-11-21T06:38:28;8.03;;;3.70;;
14754;SDS011;7469;50.906;6.952;2022-11-21T06:40:57;6.70;;;3.50;;
14754;SDS011;7469;50.906;6.952;2022-11-21T06:43:25;8.37;;;3.33;;
14754;SDS011;7469;50.906;6.952;2022-11-21T06:45:54;9.43;;;3.63;;
14754;SDS011;7469;50.906;6.952;2022-11-21T06:48:24;12.63;;;3.57;;
14754;SDS011;7469;50.906;6.952;2022-11-21T06:50:53;8.33;;;3.53;;
14754;SDS011;7469;50.906;6.952;2022-11-21T06:53:21;7.07;;;3.37;;
14754;SDS011;7469;50.906;6.952;2022-11-21T06:55:49;6.37;;;3.07;;
14754;SDS011;7469;50.906;6.952;2022-11-21T06:58:17;6.80;;;3.13;;
14754;SDS011;7469;50.906;6.952;2022-11-21T07:00:45;6.47;;;3.30;;
14754;SDS011;7469;50.906;6.952;2022-11-21T07:03:13;9.47;;;3.33;;
14754;SDS011;7469;50.906;6.952;2022-11-21T07:05:41;9.20;;;3.10;;
14754;SDS011;7469;50.906;6.952;2022-11-21T07:08:11;6.73;;;2.90;;
14754;SDS011;7469;50.906;6.952;2022-11-21T07:10:39;5.07;;;3.07;;
14754;SDS011;7469;50.906;6.952;2022-11-21T07:13:27;7.77;;;2.80;;
14754;SDS011;7469;50.906;6.952;2022-11-21T07:15:59;7.60;;;3.07;;
14754;SDS011;7469;50.906;6.952;2022-11-21T07:18:28;9.50;;;3.17;;
14754;SDS011;7469;50.906;6.952;2022-11-21T07:20:56;6.03;;;2.93;;
14754;SDS011;7469;50.906;6.952;2022-11-21T07:23:26;8.53;;;3.07;;
14754;SDS011;7469;50.906;6.952;2022-11-21T07:25:58;5.90;;;3.13;;
14754;SDS011;7469;50.906;6.952;2022-11-21T07:28:26;5.80;;;3.07;;
14754;SDS011;7469;50.906;6.952;2022-11-21T07:30:55;7.00;;;3.60;;
14754;SDS011;7469;50.906;6.952;2022-11-21T07:33:23;6.47;;;3.47;;
14754;SDS011;7469;50.906;6.952;2022-11-21T07:35:51;6.23;;;2.90;;
14754;SDS011;7469;50.906;6.952;2022-11-21T07:38:21;6.93;;;2.77;;
14754;SDS011;7469;50.906;6.952;2022-11-21T07:40:50;7.73;;;3.60;;
14754;SDS011;7469;50.906;6.952;2022-11-21T07:43:19;8.77;;;3.17;;
14754;SDS011;7469;50.906;6.952;2022-11-21T07:45:47;10.87;;;3.93;;
14754;SDS011;7469;50.906;6.952;2022-11-21T07:48:15;7.73;;;3.30;;
14754;SDS011;7469;50.906;6.952;2022-11-21T07:50:43;5.97;;;2.97;;
14754;SDS011;7469;50.906;6.952;2022-11-21T07:53:11;3.57;;;3.10;;
14754;SDS011;7469;50.906;6.952;2022-11-21T07:55:38;5.30;;;2.83;;
14754;SDS011;7469;50.906;6.952;2022-11-21T07:58:08;8.87;;;3.40;;
14754;SDS011;7469;50.906;6.952;2022-11-21T08:00:38;4.30;;;3.10;;
14754;SDS011;7469;50.906;6.952;2022-11-21T08:03:08;6.53;;;2.93;;
14754;SDS011;7469;50.906;6.952;2022-11-21T08:05:38;7.53;;;3.00;;
14754;SDS011;7469;50.906;6.952;2022-11-21T08:08:08;7.10;;;2.93;;
14754;SDS011;7469;50.906;6.952;2022-11-21T08:10:37;7.27;;;2.97;;
14754;SDS011;7469;50.906;6.952;2022-11-21T08:13:07;6.67;;;3.17;;
14754;SDS011;7469;50.906;6.952;2022-11-21T08:15:37;6.63;;;3.30;;
14754;SDS011;7469;50.906;6.952;2022-11-21T08:18:06;6.47;;;3.33;;
14754;SDS011;7469;50.906;6.952;2022-11-21T08:20:34;5.67;;;3.37;;
14754;SDS011;7469;50.906;6.952;2022-11-21T08:23:02;7.17;;;3.63;;
14754;SDS011;7469;50.906;6.952;2022-11-21T08:25:32;6.53;;;3.47;;
14754;SDS011;7469;50.906;6.952;2022-11-21T08:28:00;6.97;;;3.93;;
14754;SDS011;7469;50.906;6.952;2022-11-21T08:30:30;4.67;;;3.17;;
14754;SDS011;7469;50.906;6.952;2022-11-21T08:32:59;9.43;;;3.83;;
14754;SDS011;7469;50.906;6.952;2022-11-21T08:35:27;11.13;;;3.93;;
14754;SDS011;7469;50.906;6.952;2022-11-21T08:37:56;8.00;;;4.40;;
14754;SDS011;7469;50.906;6.952;2022-11-21T08:40:24;11.03;;;4.10;;
14754;SDS011;7469;50.906;6.952;2022-11-21T08:42:56;7.20;;;4.00;;
14754;SDS011;7469;50.906;6.952;2022-11-21T08:45:25;8.40;;;4.33;;
14754;SDS011;7469;50.906;6.952;2022-11-21T08:47:54;8.90;;;4.00;;
14754;SDS011;7469;50.906;6.952;2022-11-21T08:50:22;6.43;;;4.40;;
14754;SDS011;7469;50.906;6.952;2022-11-21T08:52:51;7.13;;;4.37;;
14754;SDS011;7469;50.906;6.952;2022-11-21T08:55:19;6.63;;;4.10;;
14754;SDS011;7469;50.906;6.952;2022-11-21T08:57:48;9.03;;;4.30;;
14754;SDS011;7469;50.906;6.952;2022-11-21T09:00:16;10.57;;;4.57;;
14754;SDS011;7469;50.906;6.952;2022-11-21T09:02:44;6.33;;;4.37;;
14754;SDS011;7469;50.906;6.952;2022-11-21T09:05:13;7.93;;;4.33;;
14754;SDS011;7469;50.906;6.952;2022-11-21T09:07:41;6.23;;;5.10;;
14754;SDS011;7469;50.906;6.952;2022-11-21T09:10:09;8.87;;;5.53;;
14754;SDS011;7469;50.906;6.952;2022-11-21T09:12:38;8.73;;;5.77;;
14754;SDS011;7469;50.906;6.952;2022-11-21T09:15:06;11.00;;;6.50;;
14754;SDS011;7469;50.906;6.952;2022-11-21T09:17:53;7.67;;;6.47;;
14754;SDS011;7469;50.906;6.952;2022-11-21T09:20:32;9.57;;;6.67;;
14754;SDS011;7469;50.906;6.952;2022-11-21T09:23:04;12.20;;;6.27;;
14754;SDS011;7469;50.906;6.952;2022-11-21T09:25:33;14.07;;;5.90;;
14754;SDS011;7469;50.906;6.952;2022-11-21T09:28:02;8.47;;;5.30;;
14754;SDS011;7469;50.906;6.952;2022-11-21T09:30:31;9.07;;;5.63;;
14754;SDS011;7469;50.906;6.952;2022-11-21T09:32:59;6.13;;;4.50;;
14754;SDS011;7469;50.906;6.952;2022-11-21T09:35:28;9.20;;;5.30;;
14754;SDS011;7469;50.906;6.952;2022-11-21T09:37:57;6.03;;;3.50;;
14754;SDS011;7469;50.906;6.952;2022-11-21T09:40:25;6.17;;;3.43;;
14754;SDS011;7469;50.906;6.952;2022-11-21T09:43:02;8.27;;;4.43;;
14754;SDS011;7469;50.906;6.952;2022-11-21T09:45:43;6.80;;;4.30;;
14754;SDS011;7469;50.906;6.952;2022-11-21T09:48:15;6.23;;;4.17;;
14754;SDS011;7469;50.906;6.952;2022-11-21T09:50:49;6.07;;;3.30;;
14754;SDS011;7469;50.906;6.952;2022-11-21T09:53:22;4.87;;;2.80;;
14754;SDS011;7469;50.906;6.952;2022-11-21T09:55:54;8.50;;;3.13;;
14754;SDS011;7469;50.906;6.952;2022-11-21T09:58:26;5.07;;;2.60;;
14754;SDS011;7469;50.906;6.952;2022-11-21T10:00:58;4.20;;;2.07;;
14754;SDS011;7469;50.906;6.952;2022-11-21T10:03:28;3.90;;;2.07;;
14754;SDS011;7469;50.906;6.952;2022-11-21T10:06:00;4.17;;;2.07;;
14754;SDS011;7469;50.906;6.952;2022-11-21T10:08:39;2.93;;;1.73;;
14754;SDS011;7469;50.906;6.952;2022-11-21T10:11:16;3.33;;;1.80;;
14754;SDS011;7469;50.906;6.952;2022-11-21T10:13:53;5.10;;;1.87;;
14754;SDS011;7469;50.906;6.952;2022-11-21T10:16:32;4.57;;;1.80;;
14754;SDS011;7469;50.906;6.952;2022-11-21T10:22:04;2.53;;;1.67;;
14754;SDS011;7469;50.906;6.952;2022-11-21T10:24:45;4.40;;;1.70;;
14754;SDS011;7469;50.906;6.952;2022-11-21T10:27:20;3.77;;;1.97;;
14754;SDS011;7469;50.906;6.952;2022-11-21T10:29:56;1.80;;;1.37;;
14754;SDS011;7469;50.906;6.952;2022-11-21T10:32:28;2.40;;;1.33;;
14754;SDS011;7469;50.906;6.952;2022-11-21T10:35:00;3.10;;;1.57;;
14754;SDS011;7469;50.906;6.952;2022-11-21T10:37:39;3.20;;;1.60;;
14754;SDS011;7469;50.906;6.952;2022-11-21T10:40:19;4.20;;;1.30;;
14754;SDS011;7469;50.906;6.952;2022-11-21T10:42:56;6.43;;;1.20;;
14754;SDS011;7469;50.906;6.952;2022-11-21T10:45:47;4.37;;;1.10;;
14754;SDS011;7469;50.906;6.952;2022-11-21T10:48:14;4.57;;;1.30;;
14754;SDS011;7469;50.906;6.952;2022-11-21T10:50:45;4.43;;;1.20;;
14754;SDS011;7469;50.906;6.952;2022-11-21T10:53:24;4.47;;;1.37;;
14754;SDS011;7469;50.906;6.952;2022-11-21T10:56:24;2.70;;;1.13;;
14754;SDS011;7469;50.906;6.952;2022-11-21T10:58:54;3.03;;;1.00;;
14754;SDS011;7469;50.906;6.952;2022-11-21T11:01:24;3.03;;;1.13;;
14754;SDS011;7469;50.906;6.952;2022-11-21T11:04:07;3.20;;;1.30;;
14754;SDS011;7469;50.906;6.952;2022-11-21T11:07:12;5.37;;;1.20;;
14754;SDS011;7469;50.906;6.952;2022-11-21T11:09:48;0.90;;;0.80;;
14754;SDS011;7469;50.906;6.952;2022-11-21T11:12:23;1.73;;;1.00;;
14754;SDS011;7469;50.906;6.952;2022-11-21T11:15:17;4.30;;;1.13;;
14754;SDS011;7469;50.906;6.952;2022-11-21T11:17:50;2.63;;;1.20;;
14754;SDS011;7469;50.906;6.952;2022-11-21T11:20:29;3.57;;;1.40;;
14754;SDS011;7469;50.906;6.952;2022-11-21T11:23:14;5.30;;;1.30;;
14754;SDS011;7469;50.906;6.952;2022-11-21T11:25:44;2.00;;;1.13;;
14754;SDS011;7469;50.906;6.952;2022-11-21T11:28:15;2.93;;;1.03;;
14754;SDS011;7469;50.906;6.952;2022-11-21T11:30:44;4.40;;;1.33;;
14754;SDS011;7469;50.906;6.952;2022-11-21T11:36:08;3.47;;;0.97;;
14754;SDS011;7469;50.906;6.952;2022-11-21T11:38:40;4.57;;;1.17;;
14754;SDS011;7469;50.906;6.952;2022-11-21T11:41:14;3.57;;;1.20;;
14754;SDS011;7469;50.906;6.952;2022-11-21T11:43:57;3.00;;;1.07;;
14754;SDS011;7469;50.906;6.952;2022-11-21T11:46:50;5.83;;;1.30;;
14754;SDS011;7469;50.906;6.952;2022-11-21T11:49:43;3.63;;;1.23;;
14754;SDS011;7469;50.906;6.952;2022-11-21T11:52:30;2.77;;;1.00;;
14754;SDS011;7469;50.906;6.952;2022-11-21T11:55:02;2.77;;;0.90;;
14754;SDS011;7469;50.906;6.952;2022-11-21T11:57:32;3.23;;;1.00;;
14754;SDS011;7469;50.906;6.952;2022-11-21T12:00:05;2.30;;;1.00;;
14754;SDS011;7469;50.906;6.952;2022-11-21T12:02:51;2.70;;;1.20;;
14754;SDS011;7469;50.906;6.952;2022-11-21T12:05:25;1.70;;;1.00;;
14754;SDS011;7469;50.906;6.952;2022-11-21T12:08:02;1.63;;;0.90;;
14754;SDS011;7469;50.906;6.952;2022-11-21T12:10:58;2.23;;;1.20;;
14754;SDS011;7469;50.906;6.952;2022-11-21T12:13:51;3.30;;;1.10;;
14754;SDS011;7469;50.906;6.952;2022-11-21T12:16:22;2.53;;;1.10;;
14754;SDS011;7469;50.906;6.952;2022-11-21T12:18:53;3.00;;;1.10;;
14754;SDS011;7469;50.906;6.952;2022-11-21T12:21:26;2.27;;;1.10;;
14754;SDS011;7469;50.906;6.952;2022-11-21T12:23:55;3.67;;;1.40;;
14754;SDS011;7469;50.906;6.952;2022-11-21T12:26:30;5.30;;;1.30;;
14754;SDS011;7469;50.906;6.952;2022-11-21T12:29:11;3.97;;;1.10;;
14754;SDS011;7469;50.906;6.952;2022-11-21T12:31:53;2.27;;;1.20;;
14754;SDS011;7469;50.906;6.952;2022-11-21T12:34:33;1.97;;;1.00;;
14754;SDS011;7469;50.906;6.952;2022-11-21T12:37:16;3.00;;;1.33;;
14754;SDS011;7469;50.906;6.952;2022-11-21T12:39:59;2.87;;;1.17;;
14754;SDS011;7469;50.906;6.952;2022-11-21T12:42:38;1.63;;;0.90;;
14754;SDS011;7469;50.906;6.952;2022-11-21T12:45:23;2.33;;;1.13;;
14754;SDS011;7469;50.906;6.952;2022-11-21T12:48:05;1.37;;;1.03;;
14754;SDS011;7469;50.906;6.952;2022-11-21T12:51:08;2.90;;;0.77;;
14754;SDS011;7469;50.906;6.952;2022-11-21T12:54:19;1.43;;;0.87;;
14754;SDS011;7469;50.906;6.952;2022-11-21T12:57:07;3.53;;;1.00;;
14754;SDS011;7469;50.906;6.952;2022-11-21T12:59:46;4.47;;;1.20;;
14754;SDS011;7469;50.906;6.952;2022-11-21T13:02:26;1.93;;;1.00;;
14754;SDS011;7469;50.906;6.952;2022-11-21T13:05:03;4.37;;;1.30;;
14754;SDS011;7469;50.906;6.952;2022-11-21T13:07:36;2.47;;;1.00;;
14754;SDS011;7469;50.906;6.952;2022-11-21T13:10:09;1.23;;;1.13;;
14754;SDS011;7469;50.906;6.952;2022-11-21T13:12:41;4.70;;;1.20;;
14754;SDS011;7469;50.906;6.952;2022-11-21T13:15:17;2.77;;;1.00;;
14754;SDS011;7469;50.906;6.952;2022-11-21T13:17:52;5.57;;;1.67;;
14754;SDS011;7469;50.906;6.952;2022-11-21T13:20:25;2.17;;;1.03;;
14754;SDS011;7469;50.906;6.952;2022-11-21T13:22:58;4.60;;;1.43;;
14754;SDS011;7469;50.906;6.952;2022-11-21T13:25:42;5.33;;;1.60;;
14754;SDS011;7469;50.906;6.952;2022-11-21T13:31:01;2.10;;;1.20;;
14754;SDS011;7469;50.906;6.952;2022-11-21T13:33:52;2.20;;;1.10;;
14754;SDS011;7469;50.906;6.952;2022-11-21T13:36:40;2.67;;;1.20;;
14754;SDS011;7469;50.906;6.952;2022-11-21T13:42:03;4.17;;;1.37;;
14754;SDS011;7469;50.906;6.952;2022-11-21T13:44:53;2.30;;;0.97;;
14754;SDS011;7469;50.906;6.952;2022-11-21T13:56:38;2.33;;;0.90;;
14754;SDS011;7469;50.906;6.952;2022-11-21T13:59:20;2.93;;;1.07;;
14754;SDS011;7469;50.906;6.952;2022-11-21T14:02:04;7.20;;;1.60;;
14754;SDS011;7469;50.906;6.952;2022-11-21T14:04:56;3.50;;;0.93;;
14754;SDS011;7469;50.906;6.952;2022-11-21T14:07:33;4.03;;;1.17;;
14754;SDS011;7469;50.906;6.952;2022-11-21T14:10:04;6.63;;;1.50;;
14754;SDS011;7469;50.906;6.952;2022-11-21T14:12:45;7.93;;;1.40;;
14754;SDS011;7469;50.906;6.952;2022-11-21T14:15:23;7.73;;;1.70;;
14754;SDS011;7469;50.906;6.952;2022-11-21T14:17:56;4.43;;;1.10;;
14754;SDS011;7469;50.906;6.952;2022-11-21T14:20:25;3.37;;;1.07;;
14754;SDS011;7469;50.906;6.952;2022-11-21T14:22:58;4.10;;;1.03;;
14754;SDS011;7469;50.906;6.952;2022-11-21T14:25:34;0.97;;;0.80;;
14754;SDS011;7469;50.906;6.952;2022-11-21T14:28:13;1.80;;;0.80;;
14754;SDS011;7469;50.906;6.952;2022-11-21T14:30:43;5.03;;;1.40;;
14754;SDS011;7469;50.906;6.952;2022-11-21T14:33:21;4.97;;;1.20;;
14754;SDS011;7469;50.906;6.952;2022-11-21T14:35:55;0.93;;;0.80;;
14754;SDS011;7469;50.906;6.952;2022-11-21T14:38:27;3.50;;;1.40;;
14754;SDS011;7469;50.906;6.952;2022-11-21T14:41:22;5.23;;;1.50;;
14754;SDS011;7469;50.906;6.952;2022-11-21T14:44:03;5.40;;;1.73;;
14754;SDS011;7469;50.906;6.952;2022-11-21T14:46:45;5.60;;;1.50;;
14754;SDS011;7469;50.906;6.952;2022-11-21T14:49:21;2.37;;;1.10;;
14754;SDS011;7469;50.906;6.952;2022-11-21T14:52:07;4.07;;;1.60;;
14754;SDS011;7469;50.906;6.952;2022-11-21T14:54:45;6.23;;;1.47;;
14754;SDS011;7469;50.906;6.952;2022-11-21T14:57:39;3.43;;;1.20;;
14754;SDS011;7469;50.906;6.952;2022-11-21T15:00:10;10.43;;;1.33;;
14754;SDS011;7469;50.906;6.952;2022-11-21T15:03:01;5.63;;;1.47;;
14754;SDS011;7469;50.906;6.952;2022-11-21T15:05:30;5.57;;;1.53;;
14754;SDS011;7469;50.906;6.952;2022-11-21T15:08:20;4.67;;;1.40;;
14754;SDS011;7469;50.906;6.952;2022-11-21T15:11:09;4.40;;;1.40;;
14754;SDS011;7469;50.906;6.952;2022-11-21T15:13:39;4.33;;;1.47;;
14754;SDS011;7469;50.906;6.952;2022-11-21T15:16:29;7.00;;;1.30;;
14754;SDS011;7469;50.906;6.952;2022-11-21T15:18:57;2.90;;;1.20;;
14754;SDS011;7469;50.906;6.952;2022-11-21T15:21:25;6.53;;;1.43;;
14754;SDS011;7469;50.906;6.952;2022-11-21T15:23:53;7.40;;;1.60;;
14754;SDS011;7469;50.906;6.952;2022-11-21T15:26:26;4.00;;;1.47;;
14754;SDS011;7469;50.906;6.952;2022-11-21T15:28:57;2.70;;;1.07;;
14754;SDS011;7469;50.906;6.952;2022-11-21T15:31:26;6.87;;;1.30;;
14754;SDS011;7469;50.906;6.952;2022-11-21T15:33:55;4.00;;;1.33;;
14754;SDS011;7469;50.906;6.952;2022-11-21T15:36:59;6.30;;;1.20;;
14754;SDS011;7469;50.906;6.952;2022-11-21T15:39:29;2.23;;;1.13;;
14754;SDS011;7469;50.906;6.952;2022-11-21T15:45:03;2.27;;;1.30;;
14754;SDS011;7469;50.906;6.952;2022-11-21T15:47:48;3.20;;;1.33;;
14754;SDS011;7469;50.906;6.952;2022-11-21T15:50:16;4.57;;;1.50;;
14754;SDS011;7469;50.906;6.952;2022-11-21T15:52:44;3.37;;;1.37;;
14754;SDS011;7469;50.906;6.952;2022-11-21T15:55:16;5.97;;;1.57;;